sensor_id;sensor_type;location;lat;lon;timestamp;P1;durP1;ratioP1;P2;durP2;ratioP2
44228;SDS011;29904;51.058;5.378;2023-03-02T00:01:37;9.82;;;6.25;;
44228;SDS011;29904;51.058;5.378;2023-03-02T00:06:49;11.63;;;6.18;;
44228;SDS011;29904;51.058;5.378;2023-03-02T00:09:17;11.63;;;6.97;;
44228;SDS011;29904;51.058;5.378;2023-03-02T00:11:43;10.18;;;6.30;;
44228;SDS011;29904;51.058;5.378;2023-03-02T00:14:09;11.68;;;6.45;;
44228;SDS011;29904;51.058;5.378;2023-03-02T00:16:37;9.93;;;6.35;;
44228;SDS011;29904;51.058;5.378;2023-03-02T00:19:04;11.40;;;6.78;;
44228;SDS011;29904;51.058;5.378;2023-03-02T00:21:30;9.55;;;5.78;;
44228;SDS011;29904;51.058;5.378;2023-03-02T00:23:57;9.68;;;6.20;;
44228;SDS011;29904;51.058;5.378;2023-03-02T00:26:23;9.70;;;6.05;;
44228;SDS011;29904;51.058;5.378;2023-03-02T00:28:49;10.10;;;6.28;;
44228;SDS011;29904;51.058;5.378;2023-03-02T00:31:15;10.00;;;5.88;;
44228;SDS011;29904;51.058;5.378;2023-03-02T00:33:40;9.33;;;6.00;;
44228;SDS011;29904;51.058;5.378;2023-03-02T00:36:13;8.80;;;5.75;;
44228;SDS011;29904;51.058;5.378;2023-03-02T00:38:42;9.82;;;6.07;;
44228;SDS011;29904;51.058;5.378;2023-03-02T00:41:12;9.77;;;6.13;;
44228;SDS011;29904;51.058;5.378;2023-03-02T00:43:40;9.30;;;5.75;;
44228;SDS011;29904;51.058;5.378;2023-03-02T00:46:10;9.98;;;5.63;;
44228;SDS011;29904;51.058;5.378;2023-03-02T00:48:37;9.40;;;6.20;;
44228;SDS011;29904;51.058;5.378;2023-03-02T00:51:03;9.85;;;5.78;;
44228;SDS011;29904;51.058;5.378;2023-03-02T00:53:30;11.07;;;5.97;;
44228;SDS011;29904;51.058;5.378;2023-03-02T00:55:56;9.13;;;5.25;;
44228;SDS011;29904;51.058;5.378;2023-03-02T00:58:22;10.07;;;5.88;;
44228;SDS011;29904;51.058;5.378;2023-03-02T01:00:49;8.45;;;5.55;;
44228;SDS011;29904;51.058;5.378;2023-03-02T01:03:15;9.43;;;5.60;;
44228;SDS011;29904;51.058;5.378;2023-03-02T01:05:41;9.97;;;5.70;;
44228;SDS011;29904;51.058;5.378;2023-03-02T01:08:06;10.00;;;5.93;;
44228;SDS011;29904;51.058;5.378;2023-03-02T01:10:32;11.20;;;6.00;;
44228;SDS011;29904;51.058;5.378;2023-03-02T01:13:00;9.50;;;5.88;;
44228;SDS011;29904;51.058;5.378;2023-03-02T01:15:26;9.67;;;5.73;;
44228;SDS011;29904;51.058;5.378;2023-03-02T01:17:51;8.93;;;5.82;;
44228;SDS011;29904;51.058;5.378;2023-03-02T01:20:17;8.82;;;5.47;;
44228;SDS011;29904;51.058;5.378;2023-03-02T01:22:43;9.10;;;5.63;;
44228;SDS011;29904;51.058;5.378;2023-03-02T01:25:10;9.65;;;5.93;;
44228;SDS011;29904;51.058;5.378;2023-03-02T01:27:37;10.25;;;5.95;;
44228;SDS011;29904;51.058;5.378;2023-03-02T01:30:03;9.30;;;5.70;;
44228;SDS011;29904;51.058;5.378;2023-03-02T01:32:30;10.13;;;6.03;;
44228;SDS011;29904;51.058;5.378;2023-03-02T01:34:58;10.07;;;5.70;;
44228;SDS011;29904;51.058;5.378;2023-03-02T01:37:23;9.20;;;5.88;;
44228;SDS011;29904;51.058;5.378;2023-03-02T01:39:49;9.45;;;5.63;;
44228;SDS011;29904;51.058;5.378;2023-03-02T01:42:17;9.00;;;5.72;;
44228;SDS011;29904;51.058;5.378;2023-03-02T01:52:43;9.50;;;5.68;;
44228;SDS011;29904;51.058;5.378;2023-03-02T01:55:10;10.77;;;5.97;;
44228;SDS011;29904;51.058;5.378;2023-03-02T01:57:41;9.48;;;5.88;;
44228;SDS011;29904;51.058;5.378;2023-03-02T02:00:11;9.18;;;5.68;;
44228;SDS011;29904;51.058;5.378;2023-03-02T02:02:42;9.73;;;5.80;;
44228;SDS011;29904;51.058;5.378;2023-03-02T02:05:09;9.48;;;5.50;;
44228;SDS011;29904;51.058;5.378;2023-03-02T02:07:39;9.57;;;6.30;;
44228;SDS011;29904;51.058;5.378;2023-03-02T02:10:05;10.68;;;5.95;;
44228;SDS011;29904;51.058;5.378;2023-03-02T02:12:33;11.03;;;6.10;;
44228;SDS011;29904;51.058;5.378;2023-03-02T02:14:59;8.38;;;5.78;;
44228;SDS011;29904;51.058;5.378;2023-03-02T02:17:27;10.57;;;5.95;;
44228;SDS011;29904;51.058;5.378;2023-03-02T02:22:48;9.52;;;5.90;;
44228;SDS011;29904;51.058;5.378;2023-03-02T02:25:28;9.18;;;5.65;;
44228;SDS011;29904;51.058;5.378;2023-03-02T02:27:56;11.20;;;5.93;;
44228;SDS011;29904;51.058;5.378;2023-03-02T02:30:23;8.70;;;5.43;;
44228;SDS011;29904;51.058;5.378;2023-03-02T02:32:49;10.40;;;5.60;;
44228;SDS011;29904;51.058;5.378;2023-03-02T02:35:18;9.05;;;5.57;;
44228;SDS011;29904;51.058;5.378;2023-03-02T02:37:49;9.17;;;5.77;;
44228;SDS011;29904;51.058;5.378;2023-03-02T02:40:21;9.57;;;6.30;;
44228;SDS011;29904;51.058;5.378;2023-03-02T02:43:02;8.27;;;5.40;;
44228;SDS011;29904;51.058;5.378;2023-03-02T02:45:31;8.67;;;5.73;;
44228;SDS011;29904;51.058;5.378;2023-03-02T02:47:59;9.82;;;5.95;;
44228;SDS011;29904;51.058;5.378;2023-03-02T02:50:31;9.67;;;5.80;;
44228;SDS011;29904;51.058;5.378;2023-03-02T02:55:53;9.32;;;6.07;;
44228;SDS011;29904;51.058;5.378;2023-03-02T03:00:53;10.23;;;5.95;;
44228;SDS011;29904;51.058;5.378;2023-03-02T03:03:24;8.60;;;5.90;;
44228;SDS011;29904;51.058;5.378;2023-03-02T03:05:59;9.73;;;5.38;;
44228;SDS011;29904;51.058;5.378;2023-03-02T03:11:08;10.40;;;5.75;;
44228;SDS011;29904;51.058;5.378;2023-03-02T03:13:37;10.07;;;5.95;;
44228;SDS011;29904;51.058;5.378;2023-03-02T03:16:05;9.63;;;5.77;;
44228;SDS011;29904;51.058;5.378;2023-03-02T03:18:34;10.95;;;5.75;;
44228;SDS011;29904;51.058;5.378;2023-03-02T03:20:59;10.40;;;5.53;;
44228;SDS011;29904;51.058;5.378;2023-03-02T03:23:25;10.83;;;6.30;;
44228;SDS011;29904;51.058;5.378;2023-03-02T03:25:51;11.35;;;5.88;;
44228;SDS011;29904;51.058;5.378;2023-03-02T03:28:16;9.10;;;5.68;;
44228;SDS011;29904;51.058;5.378;2023-03-02T03:30:42;8.90;;;5.63;;
44228;SDS011;29904;51.058;5.378;2023-03-02T03:33:09;9.20;;;5.82;;
44228;SDS011;29904;51.058;5.378;2023-03-02T03:35:37;10.45;;;6.00;;
44228;SDS011;29904;51.058;5.378;2023-03-02T03:38:04;9.80;;;6.13;;
44228;SDS011;29904;51.058;5.378;2023-03-02T03:40:31;9.77;;;6.25;;
44228;SDS011;29904;51.058;5.378;2023-03-02T03:43:00;10.77;;;6.03;;
44228;SDS011;29904;51.058;5.378;2023-03-02T03:45:28;10.20;;;6.00;;
44228;SDS011;29904;51.058;5.378;2023-03-02T03:47:56;9.52;;;6.07;;
44228;SDS011;29904;51.058;5.378;2023-03-02T03:50:22;10.02;;;5.97;;
44228;SDS011;29904;51.058;5.378;2023-03-02T03:52:50;9.90;;;6.10;;
44228;SDS011;29904;51.058;5.378;2023-03-02T03:55:16;11.23;;;6.17;;
44228;SDS011;29904;51.058;5.378;2023-03-02T03:57:41;10.20;;;5.75;;
44228;SDS011;29904;51.058;5.378;2023-03-02T04:00:08;9.05;;;5.75;;
44228;SDS011;29904;51.058;5.378;2023-03-02T04:02:38;9.35;;;5.68;;
44228;SDS011;29904;51.058;5.378;2023-03-02T04:05:05;10.50;;;5.90;;
44228;SDS011;29904;51.058;5.378;2023-03-02T04:07:35;9.77;;;5.80;;
44228;SDS011;29904;51.058;5.378;2023-03-02T04:10:03;11.10;;;5.88;;
44228;SDS011;29904;51.058;5.378;2023-03-02T04:12:31;11.40;;;5.97;;
44228;SDS011;29904;51.058;5.378;2023-03-02T04:15:01;10.25;;;6.20;;
44228;SDS011;29904;51.058;5.378;2023-03-02T04:17:27;10.85;;;6.32;;
44228;SDS011;29904;51.058;5.378;2023-03-02T04:19:53;12.82;;;5.88;;
44228;SDS011;29904;51.058;5.378;2023-03-02T04:22:21;11.15;;;6.07;;
44228;SDS011;29904;51.058;5.378;2023-03-02T04:24:47;10.20;;;5.80;;
44228;SDS011;29904;51.058;5.378;2023-03-02T04:27:13;11.13;;;6.00;;
44228;SDS011;29904;51.058;5.378;2023-03-02T04:29:40;9.20;;;5.72;;
44228;SDS011;29904;51.058;5.378;2023-03-02T04:32:06;10.32;;;6.30;;
44228;SDS011;29904;51.058;5.378;2023-03-02T04:34:32;9.07;;;5.65;;
44228;SDS011;29904;51.058;5.378;2023-03-02T04:36:58;10.00;;;6.03;;
44228;SDS011;29904;51.058;5.378;2023-03-02T04:39:24;11.13;;;6.15;;
44228;SDS011;29904;51.058;5.378;2023-03-02T04:41:50;9.40;;;6.05;;
44228;SDS011;29904;51.058;5.378;2023-03-02T04:44:17;9.25;;;5.72;;
44228;SDS011;29904;51.058;5.378;2023-03-02T04:46:44;9.20;;;5.82;;
44228;SDS011;29904;51.058;5.378;2023-03-02T04:49:11;8.93;;;5.80;;
44228;SDS011;29904;51.058;5.378;2023-03-02T04:51:39;8.38;;;5.75;;
44228;SDS011;29904;51.058;5.378;2023-03-02T04:54:09;9.88;;;6.03;;
44228;SDS011;29904;51.058;5.378;2023-03-02T04:56:43;10.00;;;5.70;;
44228;SDS011;29904;51.058;5.378;2023-03-02T04:59:12;10.60;;;6.13;;
44228;SDS011;29904;51.058;5.378;2023-03-02T05:01:38;10.60;;;6.00;;
44228;SDS011;29904;51.058;5.378;2023-03-02T05:04:05;11.38;;;6.55;;
44228;SDS011;29904;51.058;5.378;2023-03-02T05:06:31;9.48;;;5.43;;
44228;SDS011;29904;51.058;5.378;2023-03-02T05:08:57;9.55;;;5.93;;
44228;SDS011;29904;51.058;5.378;2023-03-02T05:11:24;9.57;;;5.70;;
44228;SDS011;29904;51.058;5.378;2023-03-02T05:13:52;10.40;;;5.50;;
44228;SDS011;29904;51.058;5.378;2023-03-02T05:16:21;9.93;;;5.47;;
44228;SDS011;29904;51.058;5.378;2023-03-02T05:18:48;8.73;;;5.55;;
44228;SDS011;29904;51.058;5.378;2023-03-02T05:21:14;10.55;;;6.10;;
44228;SDS011;29904;51.058;5.378;2023-03-02T05:23:41;9.02;;;5.55;;
44228;SDS011;29904;51.058;5.378;2023-03-02T05:26:07;9.98;;;6.38;;
44228;SDS011;29904;51.058;5.378;2023-03-02T05:28:33;9.98;;;6.03;;
44228;SDS011;29904;51.058;5.378;2023-03-02T05:30:59;9.45;;;5.72;;
44228;SDS011;29904;51.058;5.378;2023-03-02T05:33:26;12.45;;;5.75;;
44228;SDS011;29904;51.058;5.378;2023-03-02T05:35:53;10.07;;;5.82;;
44228;SDS011;29904;51.058;5.378;2023-03-02T05:38:18;8.97;;;5.63;;
44228;SDS011;29904;51.058;5.378;2023-03-02T05:40:46;10.80;;;5.60;;
44228;SDS011;29904;51.058;5.378;2023-03-02T05:43:15;9.32;;;5.85;;
44228;SDS011;29904;51.058;5.378;2023-03-02T05:45:42;9.45;;;5.68;;
44228;SDS011;29904;51.058;5.378;2023-03-02T05:48:09;8.45;;;5.70;;
44228;SDS011;29904;51.058;5.378;2023-03-02T05:50:36;9.63;;;5.63;;
44228;SDS011;29904;51.058;5.378;2023-03-02T05:53:04;10.05;;;6.03;;
44228;SDS011;29904;51.058;5.378;2023-03-02T05:55:30;11.00;;;5.70;;
44228;SDS011;29904;51.058;5.378;2023-03-02T05:58:01;9.57;;;5.20;;
44228;SDS011;29904;51.058;5.378;2023-03-02T06:00:47;10.50;;;5.65;;
44228;SDS011;29904;51.058;5.378;2023-03-02T06:03:13;8.88;;;5.97;;
44228;SDS011;29904;51.058;5.378;2023-03-02T06:05:40;9.70;;;5.60;;
44228;SDS011;29904;51.058;5.378;2023-03-02T06:08:06;8.57;;;5.40;;
44228;SDS011;29904;51.058;5.378;2023-03-02T06:10:32;8.93;;;5.17;;
44228;SDS011;29904;51.058;5.378;2023-03-02T06:12:58;10.20;;;5.80;;
44228;SDS011;29904;51.058;5.378;2023-03-02T06:15:24;10.00;;;6.30;;
44228;SDS011;29904;51.058;5.378;2023-03-02T06:17:54;9.75;;;5.95;;
44228;SDS011;29904;51.058;5.378;2023-03-02T06:20:20;10.32;;;5.88;;
44228;SDS011;29904;51.058;5.378;2023-03-02T06:22:46;12.55;;;6.55;;
44228;SDS011;29904;51.058;5.378;2023-03-02T06:25:19;11.13;;;6.10;;
44228;SDS011;29904;51.058;5.378;2023-03-02T06:27:46;10.45;;;5.78;;
44228;SDS011;29904;51.058;5.378;2023-03-02T06:30:16;11.35;;;6.20;;
44228;SDS011;29904;51.058;5.378;2023-03-02T06:32:43;10.05;;;5.80;;
44228;SDS011;29904;51.058;5.378;2023-03-02T06:35:10;8.55;;;5.40;;
44228;SDS011;29904;51.058;5.378;2023-03-02T06:37:36;11.23;;;5.82;;
44228;SDS011;29904;51.058;5.378;2023-03-02T06:40:03;10.53;;;5.93;;
44228;SDS011;29904;51.058;5.378;2023-03-02T06:42:40;11.13;;;5.60;;
44228;SDS011;29904;51.058;5.378;2023-03-02T06:45:06;10.05;;;5.80;;
44228;SDS011;29904;51.058;5.378;2023-03-02T06:47:33;9.13;;;6.10;;
44228;SDS011;29904;51.058;5.378;2023-03-02T06:49:59;11.13;;;5.88;;
44228;SDS011;29904;51.058;5.378;2023-03-02T06:52:25;9.73;;;5.63;;
44228;SDS011;29904;51.058;5.378;2023-03-02T06:54:51;10.02;;;5.70;;
44228;SDS011;29904;51.058;5.378;2023-03-02T06:57:17;9.10;;;5.30;;
44228;SDS011;29904;51.058;5.378;2023-03-02T06:59:43;9.07;;;5.57;;
44228;SDS011;29904;51.058;5.378;2023-03-02T07:02:09;11.68;;;6.00;;
44228;SDS011;29904;51.058;5.378;2023-03-02T07:04:35;9.70;;;6.10;;
44228;SDS011;29904;51.058;5.378;2023-03-02T07:07:01;9.23;;;5.28;;
44228;SDS011;29904;51.058;5.378;2023-03-02T07:09:27;7.93;;;5.20;;
44228;SDS011;29904;51.058;5.378;2023-03-02T07:11:54;8.68;;;5.35;;
44228;SDS011;29904;51.058;5.378;2023-03-02T07:14:21;9.70;;;5.28;;
44228;SDS011;29904;51.058;5.378;2023-03-02T07:16:46;9.65;;;5.57;;
44228;SDS011;29904;51.058;5.378;2023-03-02T07:19:12;9.65;;;5.22;;
44228;SDS011;29904;51.058;5.378;2023-03-02T07:21:38;10.25;;;6.13;;
44228;SDS011;29904;51.058;5.378;2023-03-02T07:24:04;9.07;;;5.75;;
44228;SDS011;29904;51.058;5.378;2023-03-02T07:26:30;10.00;;;5.40;;
44228;SDS011;29904;51.058;5.378;2023-03-02T07:28:56;10.07;;;5.87;;
44228;SDS011;29904;51.058;5.378;2023-03-02T07:31:23;7.95;;;5.50;;
44228;SDS011;29904;51.058;5.378;2023-03-02T07:33:50;9.15;;;5.63;;
44228;SDS011;29904;51.058;5.378;2023-03-02T07:36:15;10.23;;;5.70;;
44228;SDS011;29904;51.058;5.378;2023-03-02T07:38:41;9.35;;;5.50;;
44228;SDS011;29904;51.058;5.378;2023-03-02T07:41:07;9.27;;;5.63;;
44228;SDS011;29904;51.058;5.378;2023-03-02T07:43:33;9.27;;;5.75;;
44228;SDS011;29904;51.058;5.378;2023-03-02T07:46:01;8.03;;;5.47;;
44228;SDS011;29904;51.058;5.378;2023-03-02T07:48:28;8.65;;;5.25;;
44228;SDS011;29904;51.058;5.378;2023-03-02T07:50:58;9.83;;;5.43;;
44228;SDS011;29904;51.058;5.378;2023-03-02T07:53:25;9.18;;;5.40;;
44228;SDS011;29904;51.058;5.378;2023-03-02T07:55:51;9.82;;;6.10;;
44228;SDS011;29904;51.058;5.378;2023-03-02T07:58:17;10.13;;;6.13;;
44228;SDS011;29904;51.058;5.378;2023-03-02T08:00:45;9.38;;;5.80;;
44228;SDS011;29904;51.058;5.378;2023-03-02T08:03:11;8.52;;;5.72;;
44228;SDS011;29904;51.058;5.378;2023-03-02T08:05:36;8.35;;;5.60;;
44228;SDS011;29904;51.058;5.378;2023-03-02T08:08:02;10.00;;;5.30;;
44228;SDS011;29904;51.058;5.378;2023-03-02T08:10:28;10.25;;;5.88;;
44228;SDS011;29904;51.058;5.378;2023-03-02T08:12:54;9.77;;;5.85;;
44228;SDS011;29904;51.058;5.378;2023-03-02T08:15:22;8.82;;;5.40;;
44228;SDS011;29904;51.058;5.378;2023-03-02T08:17:48;8.77;;;5.70;;
44228;SDS011;29904;51.058;5.378;2023-03-02T08:20:13;10.07;;;5.50;;
44228;SDS011;29904;51.058;5.378;2023-03-02T08:22:39;10.27;;;5.88;;
44228;SDS011;29904;51.058;5.378;2023-03-02T08:25:05;10.75;;;6.00;;
44228;SDS011;29904;51.058;5.378;2023-03-02T08:27:31;9.43;;;5.72;;
44228;SDS011;29904;51.058;5.378;2023-03-02T08:29:57;9.35;;;5.85;;
44228;SDS011;29904;51.058;5.378;2023-03-02T08:32:23;9.67;;;5.93;;
44228;SDS011;29904;51.058;5.378;2023-03-02T08:34:48;9.90;;;6.20;;
44228;SDS011;29904;51.058;5.378;2023-03-02T08:37:16;11.40;;;5.88;;
44228;SDS011;29904;51.058;5.378;2023-03-02T08:39:42;10.13;;;6.03;;
44228;SDS011;29904;51.058;5.378;2023-03-02T08:42:08;10.68;;;6.28;;
44228;SDS011;29904;51.058;5.378;2023-03-02T08:44:34;9.43;;;5.87;;
44228;SDS011;29904;51.058;5.378;2023-03-02T08:47:00;10.27;;;6.20;;
44228;SDS011;29904;51.058;5.378;2023-03-02T08:49:29;10.88;;;6.40;;
44228;SDS011;29904;51.058;5.378;2023-03-02T08:51:57;10.25;;;5.90;;
44228;SDS011;29904;51.058;5.378;2023-03-02T08:54:23;9.85;;;5.80;;
44228;SDS011;29904;51.058;5.378;2023-03-02T08:56:49;10.70;;;6.00;;
44228;SDS011;29904;51.058;5.378;2023-03-02T08:59:15;9.23;;;6.07;;
44228;SDS011;29904;51.058;5.378;2023-03-02T09:01:41;10.52;;;6.15;;
44228;SDS011;29904;51.058;5.378;2023-03-02T09:04:07;9.98;;;6.55;;
44228;SDS011;29904;51.058;5.378;2023-03-02T09:06:35;9.37;;;5.87;;
44228;SDS011;29904;51.058;5.378;2023-03-02T09:09:03;10.20;;;5.75;;
44228;SDS011;29904;51.058;5.378;2023-03-02T09:11:29;11.75;;;6.10;;
44228;SDS011;29904;51.058;5.378;2023-03-02T09:13:57;11.57;;;6.03;;
44228;SDS011;29904;51.058;5.378;2023-03-02T09:16:23;9.93;;;5.43;;
44228;SDS011;29904;51.058;5.378;2023-03-02T09:18:50;10.15;;;5.85;;
44228;SDS011;29904;51.058;5.378;2023-03-02T09:21:18;9.87;;;6.10;;
44228;SDS011;29904;51.058;5.378;2023-03-02T09:23:44;8.15;;;5.50;;
44228;SDS011;29904;51.058;5.378;2023-03-02T09:26:10;9.17;;;5.80;;
44228;SDS011;29904;51.058;5.378;2023-03-02T09:28:38;9.90;;;5.60;;
44228;SDS011;29904;51.058;5.378;2023-03-02T09:31:04;8.82;;;5.35;;
44228;SDS011;29904;51.058;5.378;2023-03-02T09:33:31;10.07;;;5.68;;
44228;SDS011;29904;51.058;5.378;2023-03-02T09:35:57;10.70;;;6.13;;
44228;SDS011;29904;51.058;5.378;2023-03-02T09:38:23;11.48;;;5.68;;
44228;SDS011;29904;51.058;5.378;2023-03-02T09:49:28;9.02;;;5.43;;
44228;SDS011;29904;51.058;5.378;2023-03-02T09:54:29;10.48;;;5.50;;
44228;SDS011;29904;51.058;5.378;2023-03-02T09:56:56;9.32;;;5.60;;
44228;SDS011;29904;51.058;5.378;2023-03-02T09:59:28;10.85;;;5.88;;
44228;SDS011;29904;51.058;5.378;2023-03-02T10:02:00;9.63;;;6.13;;
44228;SDS011;29904;51.058;5.378;2023-03-02T10:04:37;11.35;;;5.80;;
44228;SDS011;29904;51.058;5.378;2023-03-02T10:07:13;10.10;;;5.85;;
44228;SDS011;29904;51.058;5.378;2023-03-02T10:09:46;9.10;;;5.73;;
44228;SDS011;29904;51.058;5.378;2023-03-02T10:12:24;11.15;;;6.00;;
44228;SDS011;29904;51.058;5.378;2023-03-02T10:15:34;11.65;;;6.10;;
44228;SDS011;29904;51.058;5.378;2023-03-02T10:23:34;9.32;;;5.80;;
44228;SDS011;29904;51.058;5.378;2023-03-02T10:28:47;15.48;;;7.53;;
44228;SDS011;29904;51.058;5.378;2023-03-02T10:31:24;11.93;;;6.40;;
44228;SDS011;29904;51.058;5.378;2023-03-02T10:33:50;12.10;;;6.57;;
44228;SDS011;29904;51.058;5.378;2023-03-02T10:36:23;10.73;;;6.32;;
44228;SDS011;29904;51.058;5.378;2023-03-02T10:39:15;10.52;;;6.30;;
44228;SDS011;29904;51.058;5.378;2023-03-02T10:41:57;10.20;;;6.32;;
44228;SDS011;29904;51.058;5.378;2023-03-02T10:44:34;9.82;;;5.80;;
44228;SDS011;29904;51.058;5.378;2023-03-02T10:47:04;10.18;;;5.82;;
44228;SDS011;29904;51.058;5.378;2023-03-02T10:49:35;10.43;;;6.30;;
44228;SDS011;29904;51.058;5.378;2023-03-02T10:52:16;10.65;;;6.13;;
44228;SDS011;29904;51.058;5.378;2023-03-02T10:54:44;11.27;;;6.28;;
44228;SDS011;29904;51.058;5.378;2023-03-02T10:57:44;9.23;;;6.15;;
44228;SDS011;29904;51.058;5.378;2023-03-02T11:00:26;9.65;;;6.13;;
44228;SDS011;29904;51.058;5.378;2023-03-02T11:02:54;9.95;;;6.10;;
44228;SDS011;29904;51.058;5.378;2023-03-02T11:05:27;10.57;;;6.30;;
44228;SDS011;29904;51.058;5.378;2023-03-02T11:07:58;9.43;;;5.65;;
44228;SDS011;29904;51.058;5.378;2023-03-02T11:10:30;10.05;;;6.15;;
44228;SDS011;29904;51.058;5.378;2023-03-02T11:13:22;9.07;;;5.65;;
44228;SDS011;29904;51.058;5.378;2023-03-02T11:16:30;9.57;;;5.97;;
44228;SDS011;29904;51.058;5.378;2023-03-02T11:21:32;10.15;;;6.15;;
44228;SDS011;29904;51.058;5.378;2023-03-02T11:24:14;10.70;;;6.25;;
44228;SDS011;29904;51.058;5.378;2023-03-02T11:26:58;9.00;;;5.78;;
44228;SDS011;29904;51.058;5.378;2023-03-02T11:29:40;10.00;;;5.80;;
44228;SDS011;29904;51.058;5.378;2023-03-02T11:42:44;10.35;;;6.38;;
44228;SDS011;29904;51.058;5.378;2023-03-02T11:47:40;9.43;;;5.97;;
44228;SDS011;29904;51.058;5.378;2023-03-02T11:50:11;9.10;;;5.80;;
44228;SDS011;29904;51.058;5.378;2023-03-02T11:52:41;8.27;;;5.78;;
44228;SDS011;29904;51.058;5.378;2023-03-02T11:57:50;9.23;;;6.05;;
44228;SDS011;29904;51.058;5.378;2023-03-02T12:02:57;9.77;;;6.13;;
44228;SDS011;29904;51.058;5.378;2023-03-02T12:05:28;9.47;;;6.43;;
44228;SDS011;29904;51.058;5.378;2023-03-02T12:07:57;11.40;;;6.28;;
44228;SDS011;29904;51.058;5.378;2023-03-02T12:13:35;10.93;;;5.88;;
44228;SDS011;29904;51.058;5.378;2023-03-02T12:16:03;10.93;;;6.50;;
44228;SDS011;29904;51.058;5.378;2023-03-02T12:21:18;9.38;;;6.25;;
44228;SDS011;29904;51.058;5.378;2023-03-02T12:28:58;10.05;;;6.45;;
44228;SDS011;29904;51.058;5.378;2023-03-02T12:31:24;10.02;;;6.38;;
44228;SDS011;29904;51.058;5.378;2023-03-02T12:33:51;11.75;;;6.68;;
44228;SDS011;29904;51.058;5.378;2023-03-02T12:44:52;11.48;;;6.70;;
44228;SDS011;29904;51.058;5.378;2023-03-02T12:47:25;11.43;;;6.47;;
44228;SDS011;29904;51.058;5.378;2023-03-02T12:49:56;12.70;;;7.13;;
44228;SDS011;29904;51.058;5.378;2023-03-02T12:55:15;11.80;;;6.82;;
44228;SDS011;29904;51.058;5.378;2023-03-02T12:57:50;10.75;;;6.70;;
44228;SDS011;29904;51.058;5.378;2023-03-02T13:00:19;9.85;;;6.57;;
44228;SDS011;29904;51.058;5.378;2023-03-02T13:02:51;10.23;;;6.65;;
44228;SDS011;29904;51.058;5.378;2023-03-02T13:05:21;10.93;;;6.95;;
44228;SDS011;29904;51.058;5.378;2023-03-02T13:07:59;12.13;;;7.10;;
44228;SDS011;29904;51.058;5.378;2023-03-02T13:13:19;11.07;;;7.10;;
44228;SDS011;29904;51.058;5.378;2023-03-02T13:16:00;12.27;;;7.43;;
44228;SDS011;29904;51.058;5.378;2023-03-02T13:18:28;11.43;;;7.18;;
44228;SDS011;29904;51.058;5.378;2023-03-02T13:20:57;12.10;;;7.57;;
44228;SDS011;29904;51.058;5.378;2023-03-02T13:23:25;12.23;;;7.13;;
44228;SDS011;29904;51.058;5.378;2023-03-02T13:25:53;10.95;;;6.82;;
44228;SDS011;29904;51.058;5.378;2023-03-02T13:28:30;12.32;;;7.40;;
44228;SDS011;29904;51.058;5.378;2023-03-02T13:33:32;13.45;;;7.75;;
44228;SDS011;29904;51.058;5.378;2023-03-02T13:36:00;12.35;;;7.32;;
44228;SDS011;29904;51.058;5.378;2023-03-02T13:38:31;11.80;;;7.50;;
44228;SDS011;29904;51.058;5.378;2023-03-02T13:41:00;11.27;;;6.93;;
44228;SDS011;29904;51.058;5.378;2023-03-02T13:43:32;11.17;;;6.97;;
44228;SDS011;29904;51.058;5.378;2023-03-02T13:46:05;12.25;;;6.90;;
44228;SDS011;29904;51.058;5.378;2023-03-02T13:48:36;11.63;;;6.55;;
44228;SDS011;29904;51.058;5.378;2023-03-02T13:51:15;11.68;;;6.72;;
44228;SDS011;29904;51.058;5.378;2023-03-02T13:53:57;11.30;;;6.47;;
44228;SDS011;29904;51.058;5.378;2023-03-02T13:56:27;11.30;;;6.45;;
44228;SDS011;29904;51.058;5.378;2023-03-02T13:58:58;12.57;;;6.97;;
44228;SDS011;29904;51.058;5.378;2023-03-02T14:01:25;12.07;;;6.73;;
44228;SDS011;29904;51.058;5.378;2023-03-02T14:03:52;12.98;;;6.68;;
44228;SDS011;29904;51.058;5.378;2023-03-02T14:06:17;10.60;;;6.57;;
44228;SDS011;29904;51.058;5.378;2023-03-02T14:08:46;12.05;;;7.18;;
44228;SDS011;29904;51.058;5.378;2023-03-02T14:11:14;11.30;;;7.10;;
44228;SDS011;29904;51.058;5.378;2023-03-02T14:13:45;10.18;;;6.75;;
44228;SDS011;29904;51.058;5.378;2023-03-02T14:16:16;11.30;;;6.65;;
44228;SDS011;29904;51.058;5.378;2023-03-02T14:18:46;11.50;;;6.72;;
44228;SDS011;29904;51.058;5.378;2023-03-02T14:21:15;10.98;;;6.85;;
44228;SDS011;29904;51.058;5.378;2023-03-02T14:23:42;13.43;;;6.93;;
44228;SDS011;29904;51.058;5.378;2023-03-02T14:26:15;10.43;;;7.13;;
44228;SDS011;29904;51.058;5.378;2023-03-02T14:29:02;10.52;;;6.85;;
44228;SDS011;29904;51.058;5.378;2023-03-02T14:31:44;10.52;;;6.78;;
44228;SDS011;29904;51.058;5.378;2023-03-02T14:34:14;11.85;;;7.13;;
44228;SDS011;29904;51.058;5.378;2023-03-02T14:36:40;10.87;;;6.80;;
44228;SDS011;29904;51.058;5.378;2023-03-02T14:41:57;11.82;;;7.03;;
44228;SDS011;29904;51.058;5.378;2023-03-02T14:44:23;12.02;;;7.53;;
44228;SDS011;29904;51.058;5.378;2023-03-02T14:46:49;11.93;;;7.95;;
44228;SDS011;29904;51.058;5.378;2023-03-02T14:49:17;11.18;;;7.50;;
44228;SDS011;29904;51.058;5.378;2023-03-02T14:51:45;12.27;;;7.60;;
44228;SDS011;29904;51.058;5.378;2023-03-02T14:54:22;12.32;;;7.80;;
44228;SDS011;29904;51.058;5.378;2023-03-02T14:56:48;12.75;;;7.72;;
44228;SDS011;29904;51.058;5.378;2023-03-02T14:59:14;11.25;;;7.25;;
44228;SDS011;29904;51.058;5.378;2023-03-02T15:01:40;11.82;;;7.35;;
44228;SDS011;29904;51.058;5.378;2023-03-02T15:04:08;10.80;;;7.40;;
44228;SDS011;29904;51.058;5.378;2023-03-02T15:06:37;9.52;;;6.78;;
44228;SDS011;29904;51.058;5.378;2023-03-02T15:09:05;10.90;;;6.72;;
44228;SDS011;29904;51.058;5.378;2023-03-02T15:11:32;11.00;;;7.03;;
44228;SDS011;29904;51.058;5.378;2023-03-02T15:13:58;10.35;;;6.85;;
44228;SDS011;29904;51.058;5.378;2023-03-02T15:16:24;12.25;;;7.35;;
44228;SDS011;29904;51.058;5.378;2023-03-02T15:18:50;14.10;;;7.70;;
44228;SDS011;29904;51.058;5.378;2023-03-02T15:21:18;11.18;;;7.20;;
44228;SDS011;29904;51.058;5.378;2023-03-02T15:23:45;13.43;;;7.43;;
44228;SDS011;29904;51.058;5.378;2023-03-02T15:26:11;12.30;;;7.17;;
44228;SDS011;29904;51.058;5.378;2023-03-02T15:28:37;12.52;;;7.60;;
44228;SDS011;29904;51.058;5.378;2023-03-02T15:31:09;13.80;;;7.18;;
44228;SDS011;29904;51.058;5.378;2023-03-02T15:33:39;12.10;;;7.40;;
44228;SDS011;29904;51.058;5.378;2023-03-02T15:36:05;12.45;;;7.40;;
44228;SDS011;29904;51.058;5.378;2023-03-02T15:38:34;13.55;;;7.70;;
44228;SDS011;29904;51.058;5.378;2023-03-02T15:41:09;10.82;;;7.32;;
44228;SDS011;29904;51.058;5.378;2023-03-02T15:43:39;10.45;;;7.45;;
44228;SDS011;29904;51.058;5.378;2023-03-02T15:46:05;9.77;;;6.50;;
44228;SDS011;29904;51.058;5.378;2023-03-02T15:48:33;9.95;;;6.60;;
44228;SDS011;29904;51.058;5.378;2023-03-02T15:51:01;10.95;;;6.55;;
44228;SDS011;29904;51.058;5.378;2023-03-02T15:53:28;11.43;;;6.90;;
44228;SDS011;29904;51.058;5.378;2023-03-02T15:55:55;11.82;;;6.85;;
44228;SDS011;29904;51.058;5.378;2023-03-02T15:58:21;11.80;;;7.03;;
44228;SDS011;29904;51.058;5.378;2023-03-02T16:00:50;11.30;;;7.03;;
44228;SDS011;29904;51.058;5.378;2023-03-02T16:03:21;11.57;;;7.00;;
44228;SDS011;29904;51.058;5.378;2023-03-02T16:05:47;10.15;;;6.72;;
44228;SDS011;29904;51.058;5.378;2023-03-02T16:08:13;11.75;;;6.97;;
44228;SDS011;29904;51.058;5.378;2023-03-02T16:10:39;9.93;;;6.40;;
44228;SDS011;29904;51.058;5.378;2023-03-02T16:13:09;10.15;;;6.50;;
44228;SDS011;29904;51.058;5.378;2023-03-02T16:15:39;9.80;;;6.43;;
44228;SDS011;29904;51.058;5.378;2023-03-02T16:18:06;9.70;;;6.15;;
44228;SDS011;29904;51.058;5.378;2023-03-02T16:20:34;10.02;;;6.65;;
44228;SDS011;29904;51.058;5.378;2023-03-02T16:23:01;9.80;;;6.22;;